sensor_id;sensor_type;location;lat;lon;timestamp;pressure;altitude;pressure_sealevel;temperature;humidity
78855;BME280;68206;59.956;30.234;2023-04-03T00:01:05;102402.00;;;-1.07;71.89
78855;BME280;68206;59.956;30.234;2023-04-03T00:03:34;102395.97;;;-1.06;72.41
78855;BME280;68206;59.956;30.234;2023-04-03T00:06:05;102405.44;;;-1.08;71.81
78855;BME280;68206;59.956;30.234;2023-04-03T00:08:33;102399.13;;;-1.13;73.54
78855;BME280;68206;59.956;30.234;2023-04-03T00:11:01;102409.66;;;-1.10;73.03
78855;BME280;68206;59.956;30.234;2023-04-03T00:13:30;102404.38;;;-1.12;72.21
78855;BME280;68206;59.956;30.234;2023-04-03T00:15:59;102402.00;;;-1.07;72.29
78855;BME280;68206;59.956;30.234;2023-04-03T00:18:27;102404.53;;;-1.09;71.54
78855;BME280;68206;59.956;30.234;2023-04-03T00:20:57;102399.41;;;-1.07;72.71
78855;BME280;68206;59.956;30.234;2023-04-03T00:23:26;102403.47;;;-1.12;73.09
78855;BME280;68206;59.956;30.234;2023-04-03T00:25:55;102393.91;;;-1.13;73.87
78855;BME280;68206;59.956;30.234;2023-04-03T00:28:23;102399.13;;;-1.13;73.49
78855;BME280;68206;59.956;30.234;2023-04-03T00:30:52;102400.75;;;-1.15;73.96
78855;BME280;68206;59.956;30.234;2023-04-03T00:33:20;102394.53;;;-1.19;75.38
78855;BME280;68206;59.956;30.234;2023-04-03T00:35:49;102400.75;;;-1.15;75.05
78855;BME280;68206;59.956;30.234;2023-04-03T00:38:19;102393.66;;;-1.19;74.17
78855;BME280;68206;59.956;30.234;2023-04-03T00:40:49;102397.81;;;-1.23;73.45
78855;BME280;68206;59.956;30.234;2023-04-03T00:43:19;102386.38;;;-1.27;74.25
78855;BME280;68206;59.956;30.234;2023-04-03T00:45:48;102403.09;;;-1.22;73.65
78855;BME280;68206;59.956;30.234;2023-04-03T00:48:20;102402.94;;;-1.25;72.77
78855;BME280;68206;59.956;30.234;2023-04-03T00:50:50;102391.66;;;-1.25;74.54
78855;BME280;68206;59.956;30.234;2023-04-03T00:53:23;102400.28;;;-1.26;73.00
78855;BME280;68206;59.956;30.234;2023-04-03T00:55:54;102394.28;;;-1.25;73.09
78855;BME280;68206;59.956;30.234;2023-04-03T00:58:27;102397.69;;;-1.26;73.38
78855;BME280;68206;59.956;30.234;2023-04-03T01:01:02;102390.41;;;-1.33;73.55
78855;BME280;68206;59.956;30.234;2023-04-03T01:03:31;102393.75;;;-1.36;73.21
78855;BME280;68206;59.956;30.234;2023-04-03T01:06:02;102387.91;;;-1.32;73.03
78855;BME280;68206;59.956;30.234;2023-04-03T01:08:33;102391.31;;;-1.33;73.07
78855;BME280;68206;59.956;30.234;2023-04-03T01:11:02;102396.38;;;-1.36;73.54
78855;BME280;68206;59.956;30.234;2023-04-03T01:13:32;102390.22;;;-1.38;73.08
78855;BME280;68206;59.956;30.234;2023-04-03T01:16:03;102401.50;;;-1.37;73.24
78855;BME280;68206;59.956;30.234;2023-04-03T01:18:32;102393.69;;;-1.37;74.01
78855;BME280;68206;59.956;30.234;2023-04-03T01:24:27;102392.38;;;-1.47;73.40
78855;BME280;68206;59.956;30.234;2023-04-03T01:27:02;102382.13;;;-1.44;73.64
78855;BME280;68206;59.956;30.234;2023-04-03T01:29:31;102388.16;;;-1.45;74.31
78855;BME280;68206;59.956;30.234;2023-04-03T01:32:02;102387.88;;;-1.51;72.76
78855;BME280;68206;59.956;30.234;2023-04-03T01:34:31;102394.84;;;-1.50;74.49
78855;BME280;68206;59.956;30.234;2023-04-03T01:37:00;102388.63;;;-1.53;73.86
78855;BME280;68206;59.956;30.234;2023-04-03T01:39:28;102403.94;;;-1.59;74.11
78855;BME280;68206;59.956;30.234;2023-04-03T01:41:56;102389.34;;;-1.56;74.58
78855;BME280;68206;59.956;30.234;2023-04-03T01:44:30;102384.03;;;-1.59;73.13
78855;BME280;68206;59.956;30.234;2023-04-03T01:47:00;102387.31;;;-1.63;74.63
78855;BME280;68206;59.956;30.234;2023-04-03T01:49:29;102391.53;;;-1.65;73.77
78855;BME280;68206;59.956;30.234;2023-04-03T01:51:57;102382.13;;;-1.63;72.86
78855;BME280;68206;59.956;30.234;2023-04-03T01:54:26;102386.41;;;-1.64;72.74
78855;BME280;68206;59.956;30.234;2023-04-03T01:56:54;102395.78;;;-1.67;72.82
78855;BME280;68206;59.956;30.234;2023-04-03T01:59:22;102405.25;;;-1.69;73.39
78855;BME280;68206;59.956;30.234;2023-04-03T02:01:51;102388.66;;;-1.71;72.72
78855;BME280;68206;59.956;30.234;2023-04-03T02:04:20;102379.97;;;-1.72;74.43
78855;BME280;68206;59.956;30.234;2023-04-03T02:06:48;102390.06;;;-1.78;73.86
78855;BME280;68206;59.956;30.234;2023-04-03T02:09:17;102397.97;;;-1.76;73.59
78855;BME280;68206;59.956;30.234;2023-04-03T02:11:45;102397.16;;;-1.75;72.94
78855;BME280;68206;59.956;30.234;2023-04-03T02:14:13;102402.28;;;-1.77;74.28
78855;BME280;68206;59.956;30.234;2023-04-03T02:17:02;102388.97;;;-1.83;73.62
78855;BME280;68206;59.956;30.234;2023-04-03T02:19:33;102391.72;;;-1.80;71.71
78855;BME280;68206;59.956;30.234;2023-04-03T02:22:01;102392.41;;;-1.84;73.43
78855;BME280;68206;59.956;30.234;2023-04-03T02:24:30;102397.59;;;-1.84;72.93
78855;BME280;68206;59.956;30.234;2023-04-03T02:26:58;102384.50;;;-1.85;73.89
78855;BME280;68206;59.956;30.234;2023-04-03T02:29:27;102381.09;;;-1.84;74.64
78855;BME280;68206;59.956;30.234;2023-04-03T02:31:55;102386.22;;;-1.86;73.50
78855;BME280;68206;59.956;30.234;2023-04-03T02:34:24;102385.47;;;-1.83;75.15
78855;BME280;68206;59.956;30.234;2023-04-03T02:36:54;102391.66;;;-1.81;73.66
78855;BME280;68206;59.956;30.234;2023-04-03T02:39:22;102389.09;;;-1.80;74.47
78855;BME280;68206;59.956;30.234;2023-04-03T02:41:50;102386.59;;;-1.78;72.60
78855;BME280;68206;59.956;30.234;2023-04-03T02:44:22;102390.69;;;-1.83;73.51
78855;BME280;68206;59.956;30.234;2023-04-03T02:46:52;102385.47;;;-1.83;74.08
78855;BME280;68206;59.956;30.234;2023-04-03T02:49:20;102389.72;;;-1.85;73.75
78855;BME280;68206;59.956;30.234;2023-04-03T02:51:48;102389.59;;;-1.88;72.95
78855;BME280;68206;59.956;30.234;2023-04-03T02:54:19;102395.44;;;-1.92;74.65
78855;BME280;68206;59.956;30.234;2023-04-03T02:56:51;102376.94;;;-1.98;74.55
78855;BME280;68206;59.956;30.234;2023-04-03T02:59:19;102384.53;;;-2.03;74.66
78855;BME280;68206;59.956;30.234;2023-04-03T03:01:48;102401.84;;;-2.04;76.04
78855;BME280;68206;59.956;30.234;2023-04-03T03:04:16;102386.16;;;-2.05;76.76
78855;BME280;68206;59.956;30.234;2023-04-03T03:06:44;102380.16;;;-2.04;76.15
78855;BME280;68206;59.956;30.234;2023-04-03T03:09:13;102373.25;;;-2.04;75.04
78855;BME280;68206;59.956;30.234;2023-04-03T03:11:44;102383.72;;;-2.02;76.74
78855;BME280;68206;59.956;30.234;2023-04-03T03:14:12;102377.63;;;-2.03;75.58
78855;BME280;68206;59.956;30.234;2023-04-03T03:16:40;102400.28;;;-2.00;74.97
78855;BME280;68206;59.956;30.234;2023-04-03T03:19:09;102396.81;;;-2.00;75.38
78855;BME280;68206;59.956;30.234;2023-04-03T03:21:38;102378.59;;;-2.00;75.74
78855;BME280;68206;59.956;30.234;2023-04-03T03:24:06;102382.00;;;-2.01;75.22
78855;BME280;68206;59.956;30.234;2023-04-03T03:26:34;102382.16;;;-1.98;73.86
78855;BME280;68206;59.956;30.234;2023-04-03T03:29:04;102392.63;;;-1.97;74.34
78855;BME280;68206;59.956;30.234;2023-04-03T03:31:32;102396.13;;;-1.96;75.61
78855;BME280;68206;59.956;30.234;2023-04-03T03:34:01;102399.63;;;-1.96;75.01
78855;BME280;68206;59.956;30.234;2023-04-03T03:36:29;102387.50;;;-1.95;75.11
78855;BME280;68206;59.956;30.234;2023-04-03T03:38:57;102393.72;;;-1.92;74.44
78855;BME280;68206;59.956;30.234;2023-04-03T03:41:25;102394.63;;;-1.91;75.40
78855;BME280;68206;59.956;30.234;2023-04-03T03:43:53;102394.69;;;-1.90;74.91
78855;BME280;68206;59.956;30.234;2023-04-03T03:46:23;102393.66;;;-1.93;74.80
78855;BME280;68206;59.956;30.234;2023-04-03T03:48:52;102388.53;;;-1.92;75.19
78855;BME280;68206;59.956;30.234;2023-04-03T03:51:21;102396.41;;;-1.90;74.41
78855;BME280;68206;59.956;30.234;2023-04-03T03:53:49;102400.78;;;-1.89;74.47
78855;BME280;68206;59.956;30.234;2023-04-03T03:56:19;102397.50;;;-1.85;75.02
78855;BME280;68206;59.956;30.234;2023-04-03T03:58:48;102400.19;;;-1.84;75.42
78855;BME280;68206;59.956;30.234;2023-04-03T04:01:17;102390.78;;;-1.82;75.94
78855;BME280;68206;59.956;30.234;2023-04-03T04:03:49;102404.78;;;-1.78;75.08
78855;BME280;68206;59.956;30.234;2023-04-03T04:06:20;102396.78;;;-1.83;75.61
78855;BME280;68206;59.956;30.234;2023-04-03T04:08:49;102389.91;;;-1.81;75.65
78855;BME280;68206;59.956;30.234;2023-04-03T04:11:18;102409.91;;;-1.80;76.19
78855;BME280;68206;59.956;30.234;2023-04-03T04:13:47;102394.25;;;-1.81;75.55
78855;BME280;68206;59.956;30.234;2023-04-03T04:16:19;102391.34;;;-1.87;75.70
78855;BME280;68206;59.956;30.234;2023-04-03T04:18:48;102394.19;;;-1.83;76.11
78855;BME280;68206;59.956;30.234;2023-04-03T04:21:18;102390.78;;;-1.82;76.70
78855;BME280;68206;59.956;30.234;2023-04-03T04:23:48;102388.09;;;-1.83;74.95
78855;BME280;68206;59.956;30.234;2023-04-03T04:26:16;102388.28;;;-1.79;76.61
78855;BME280;68206;59.956;30.234;2023-04-03T04:28:45;102397.81;;;-1.79;76.33
78855;BME280;68206;59.956;30.234;2023-04-03T04:31:13;102384.06;;;-1.77;78.83
78855;BME280;68206;59.956;30.234;2023-04-03T04:33:41;102388.44;;;-1.76;77.31
78855;BME280;68206;59.956;30.234;2023-04-03T04:36:13;102383.28;;;-1.74;76.65
78855;BME280;68206;59.956;30.234;2023-04-03T04:38:44;102388.50;;;-1.74;76.91
78855;BME280;68206;59.956;30.234;2023-04-03T04:41:14;102387.41;;;-1.79;77.24
78855;BME280;68206;59.956;30.234;2023-04-03T04:43:43;102379.81;;;-1.75;77.23
78855;BME280;68206;59.956;30.234;2023-04-03T04:46:11;102381.53;;;-1.75;78.07
78855;BME280;68206;59.956;30.234;2023-04-03T04:48:45;102382.56;;;-1.72;78.62
78855;BME280;68206;59.956;30.234;2023-04-03T04:51:18;102381.84;;;-1.69;77.78
78855;BME280;68206;59.956;30.234;2023-04-03T04:53:47;102383.53;;;-1.70;77.71
78855;BME280;68206;59.956;30.234;2023-04-03T04:56:17;102379.22;;;-1.69;78.58
78855;BME280;68206;59.956;30.234;2023-04-03T04:58:46;102383.59;;;-1.68;77.56
78855;BME280;68206;59.956;30.234;2023-04-03T05:01:17;102377.13;;;-1.58;77.98
78855;BME280;68206;59.956;30.234;2023-04-03T05:04:08;102379.78;;;-1.57;76.76
78855;BME280;68206;59.956;30.234;2023-04-03T05:06:39;102412.84;;;-1.54;74.14
78855;BME280;68206;59.956;30.234;2023-04-03T05:09:13;102397.03;;;-1.59;76.19
78855;BME280;68206;59.956;30.234;2023-04-03T05:11:43;102393.53;;;-1.59;77.67
78855;BME280;68206;59.956;30.234;2023-04-03T05:14:14;102388.53;;;-1.55;77.84
78855;BME280;68206;59.956;30.234;2023-04-03T05:16:43;102389.59;;;-1.51;77.97
78855;BME280;68206;59.956;30.234;2023-04-03T05:19:12;102384.16;;;-1.56;77.19
78855;BME280;68206;59.956;30.234;2023-04-03T05:21:42;102380.00;;;-1.52;78.68
78855;BME280;68206;59.956;30.234;2023-04-03T05:24:14;102393.81;;;-1.53;76.79
78855;BME280;68206;59.956;30.234;2023-04-03T05:26:43;102377.38;;;-1.52;77.80
78855;BME280;68206;59.956;30.234;2023-04-03T05:29:13;102393.41;;;-1.43;78.61
78855;BME280;68206;59.956;30.234;2023-04-03T05:31:41;102377.59;;;-1.48;78.98
78855;BME280;68206;59.956;30.234;2023-04-03T05:34:12;102380.41;;;-1.43;80.00
78855;BME280;68206;59.956;30.234;2023-04-03T05:36:42;102377.06;;;-1.41;81.33
78855;BME280;68206;59.956;30.234;2023-04-03T05:39:13;102379.94;;;-1.35;80.95
78855;BME280;68206;59.956;30.234;2023-04-03T05:41:43;102371.16;;;-1.37;78.65
78855;BME280;68206;59.956;30.234;2023-04-03T05:44:12;102382.72;;;-1.30;78.79
78855;BME280;68206;59.956;30.234;2023-04-03T05:46:42;102391.34;;;-1.31;78.89
78855;BME280;68206;59.956;30.234;2023-04-03T05:49:11;102384.72;;;-1.25;79.14
78855;BME280;68206;59.956;30.234;2023-04-03T05:51:39;102395.00;;;-1.28;77.06
78855;BME280;68206;59.956;30.234;2023-04-03T05:54:20;102391.72;;;-1.24;77.80
78855;BME280;68206;59.956;30.234;2023-04-03T05:56:53;102385.63;;;-1.24;76.87
78855;BME280;68206;59.956;30.234;2023-04-03T05:59:22;102383.97;;;-1.22;78.64
78855;BME280;68206;59.956;30.234;2023-04-03T06:01:53;102386.72;;;-1.19;78.11
78855;BME280;68206;59.956;30.234;2023-04-03T06:04:21;102387.56;;;-1.20;76.14
78855;BME280;68206;59.956;30.234;2023-04-03T06:06:51;102383.28;;;-1.18;76.51
78855;BME280;68206;59.956;30.234;2023-04-03T06:09:23;102391.88;;;-1.20;76.58
78855;BME280;68206;59.956;30.234;2023-04-03T06:11:52;102386.66;;;-1.20;76.44
78855;BME280;68206;59.956;30.234;2023-04-03T06:14:22;102386.66;;;-1.20;76.38
78855;BME280;68206;59.956;30.234;2023-04-03T06:16:50;102394.75;;;-1.14;76.56
78855;BME280;68206;59.956;30.234;2023-04-03T06:19:19;102392.25;;;-1.11;75.58
78855;BME280;68206;59.956;30.234;2023-04-03T06:21:52;102394.81;;;-1.13;75.06
78855;BME280;68206;59.956;30.234;2023-04-03T06:24:21;102388.91;;;-1.09;76.95
78855;BME280;68206;59.956;30.234;2023-04-03T06:26:52;102386.44;;;-1.06;76.49
78855;BME280;68206;59.956;30.234;2023-04-03T06:29:21;102395.34;;;-1.01;77.36
78855;BME280;68206;59.956;30.234;2023-04-03T06:31:50;102400.50;;;-1.02;73.91
78855;BME280;68206;59.956;30.234;2023-04-03T06:34:18;102384.03;;;-1.01;75.48
78855;BME280;68206;59.956;30.234;2023-04-03T06:36:47;102391.03;;;-1.00;74.31
78855;BME280;68206;59.956;30.234;2023-04-03T06:39:17;102405.97;;;-0.96;74.14
78855;BME280;68206;59.956;30.234;2023-04-03T06:41:48;102392.25;;;-0.92;74.07
78855;BME280;68206;59.956;30.234;2023-04-03T06:44:18;102385.47;;;-0.89;73.98
78855;BME280;68206;59.956;30.234;2023-04-03T06:46:46;102394.19;;;-0.88;71.71
78855;BME280;68206;59.956;30.234;2023-04-03T06:49:15;102388.34;;;-0.83;73.32
78855;BME280;68206;59.956;30.234;2023-04-03T06:51:43;102397.25;;;-0.77;72.94
78855;BME280;68206;59.956;30.234;2023-04-03T06:54:11;102395.19;;;-0.85;72.40
78855;BME280;68206;59.956;30.234;2023-04-03T06:56:41;102397.88;;;-0.83;71.55
78855;BME280;68206;59.956;30.234;2023-04-03T06:59:12;102399.78;;;-0.79;72.22
78855;BME280;68206;59.956;30.234;2023-04-03T07:01:42;102397.44;;;-0.73;70.89
78855;BME280;68206;59.956;30.234;2023-04-03T07:04:10;102393.84;;;-0.75;70.95
78855;BME280;68206;59.956;30.234;2023-04-03T07:06:39;102400.28;;;-0.67;70.77
78855;BME280;68206;59.956;30.234;2023-04-03T07:09:08;102401.44;;;-0.60;70.88
78855;BME280;68206;59.956;30.234;2023-04-03T07:11:37;102404.50;;;-0.50;70.69
78855;BME280;68206;59.956;30.234;2023-04-03T07:14:05;102416.47;;;-0.34;69.54
78855;BME280;68206;59.956;30.234;2023-04-03T07:16:36;102405.84;;;-0.18;70.09
78855;BME280;68206;59.956;30.234;2023-04-03T07:19:08;102405.00;;;-0.17;68.73
78855;BME280;68206;59.956;30.234;2023-04-03T07:21:36;102396.94;;;-0.02;68.53
78855;BME280;68206;59.956;30.234;2023-04-03T07:24:05;102417.50;;;0.13;67.48
78855;BME280;68206;59.956;30.234;2023-04-03T07:26:37;102419.00;;;0.06;67.56
78855;BME280;68206;59.956;30.234;2023-04-03T07:29:05;102419.50;;;-0.03;68.62
78855;BME280;68206;59.956;30.234;2023-04-03T07:31:35;102400.75;;;-0.15;71.05
78855;BME280;68206;59.956;30.234;2023-04-03T07:34:03;102407.44;;;-0.21;70.73
78855;BME280;68206;59.956;30.234;2023-04-03T07:36:32;102419.75;;;-0.17;70.46
78855;BME280;68206;59.956;30.234;2023-04-03T07:39:00;102415.97;;;-0.25;69.76
78855;BME280;68206;59.956;30.234;2023-04-03T07:41:29;102401.34;;;-0.22;71.11
78855;BME280;68206;59.956;30.234;2023-04-03T07:43:57;102411.19;;;-0.15;70.69
78855;BME280;68206;59.956;30.234;2023-04-03T07:46:26;102404.59;;;-0.07;69.32
78855;BME280;68206;59.956;30.234;2023-04-03T07:48:55;102404.41;;;0.11;70.27
78855;BME280;68206;59.956;30.234;2023-04-03T07:51:24;102416.91;;;0.20;69.77
78855;BME280;68206;59.956;30.234;2023-04-03T07:53:53;102412.00;;;0.27;69.88
78855;BME280;68206;59.956;30.234;2023-04-03T07:56:21;102410.66;;;0.37;67.37
78855;BME280;68206;59.956;30.234;2023-04-03T07:58:50;102421.56;;;0.49;67.67
78855;BME280;68206;59.956;30.234;2023-04-03T08:01:18;102441.25;;;0.41;65.76
78855;BME280;68206;59.956;30.234;2023-04-03T08:03:47;102431.09;;;0.26;66.58
78855;BME280;68206;59.956;30.234;2023-04-03T08:06:17;102424.94;;;0.24;67.66
78855;BME280;68206;59.956;30.234;2023-04-03T08:08:59;102425.47;;;0.16;66.87
78855;BME280;68206;59.956;30.234;2023-04-03T08:11:27;102414.06;;;0.14;67.62
78855;BME280;68206;59.956;30.234;2023-04-03T08:13:55;102436.78;;;0.16;68.50
78855;BME280;68206;59.956;30.234;2023-04-03T08:16:24;102426.81;;;0.06;67.12
78855;BME280;68206;59.956;30.234;2023-04-03T08:18:54;102427.19;;;0.15;67.71
78855;BME280;68206;59.956;30.234;2023-04-03T08:21:23;102429.53;;;0.09;68.73
78855;BME280;68206;59.956;30.234;2023-04-03T08:23:52;102423.84;;;-0.03;67.61
78855;BME280;68206;59.956;30.234;2023-04-03T08:26:21;102433.56;;;0.01;67.42
78855;BME280;68206;59.956;30.234;2023-04-03T08:28:49;102437.75;;;-0.03;68.07
78855;BME280;68206;59.956;30.234;2023-04-03T08:31:19;102429.63;;;-0.10;70.06
78855;BME280;68206;59.956;30.234;2023-04-03T08:33:47;102436.06;;;-0.02;69.32
78855;BME280;68206;59.956;30.234;2023-04-03T08:36:19;102438.47;;;-0.07;69.22
78855;BME280;68206;59.956;30.234;2023-04-03T08:38:50;102434.78;;;-0.12;69.66
78855;BME280;68206;59.956;30.234;2023-04-03T08:41:25;102434.91;;;-0.09;69.96
78855;BME280;68206;59.956;30.234;2023-04-03T08:44:14;102443.06;;;-0.01;70.32
78855;BME280;68206;59.956;30.234;2023-04-03T08:46:55;102437.94;;;0.02;68.85
78855;BME280;68206;59.956;30.234;2023-04-03T08:49:31;102441.94;;;-0.06;67.99
78855;BME280;68206;59.956;30.234;2023-04-03T08:52:03;102425.88;;;-0.17;68.96
78855;BME280;68206;59.956;30.234;2023-04-03T08:54:46;102467.53;;;-0.18;69.74
78855;BME280;68206;59.956;30.234;2023-04-03T08:57:17;102432.22;;;-0.10;69.60
78855;BME280;68206;59.956;30.234;2023-04-03T08:59:48;102427.81;;;-0.13;68.36
78855;BME280;68206;59.956;30.234;2023-04-03T09:02:24;102425.13;;;-0.14;69.02
78855;BME280;68206;59.956;30.234;2023-04-03T09:04:54;102435.81;;;-0.08;68.77
78855;BME280;68206;59.956;30.234;2023-04-03T09:07:32;102446.41;;;-0.04;67.66
78855;BME280;68206;59.956;30.234;2023-04-03T09:10:02;102443.97;;;0.01;68.08
78855;BME280;68206;59.956;30.234;2023-04-03T09:12:34;102430.28;;;0.07;68.85
78855;BME280;68206;59.956;30.234;2023-04-03T09:15:14;102442.28;;;0.02;67.55
78855;BME280;68206;59.956;30.234;2023-04-03T09:17:56;102430.28;;;0.07;67.89
78855;BME280;68206;59.956;30.234;2023-04-03T09:20:38;102435.28;;;0.00;68.35
78855;BME280;68206;59.956;30.234;2023-04-03T09:23:15;102435.75;;;0.13;69.47
78855;BME280;68206;59.956;30.234;2023-04-03T09:25:46;102447.28;;;0.18;67.80
78855;BME280;68206;59.956;30.234;2023-04-03T09:28:15;102447.34;;;0.19;66.94
78855;BME280;68206;59.956;30.234;2023-04-03T09:30:43;102439.72;;;0.24;67.39
78855;BME280;68206;59.956;30.234;2023-04-03T09:33:12;102437.28;;;0.28;67.41
78855;BME280;68206;59.956;30.234;2023-04-03T09:35:41;102446.06;;;0.30;66.88
78855;BME280;68206;59.956;30.234;2023-04-03T09:38:17;102433.13;;;0.33;66.65
78855;BME280;68206;59.956;30.234;2023-04-03T09:40:48;102451.78;;;0.43;66.80
78855;BME280;68206;59.956;30.234;2023-04-03T09:43:25;102442.09;;;0.40;68.83
78855;BME280;68206;59.956;30.234;2023-04-03T09:45:54;102440.50;;;0.44;67.13
78855;BME280;68206;59.956;30.234;2023-04-03T09:48:24;102435.38;;;0.47;67.24
78855;BME280;68206;59.956;30.234;2023-04-03T09:50:54;102437.25;;;0.49;65.90
78855;BME280;68206;59.956;30.234;2023-04-03T09:53:31;102435.44;;;0.48;66.57
78855;BME280;68206;59.956;30.234;2023-04-03T09:56:04;102434.78;;;0.54;65.80
78855;BME280;68206;59.956;30.234;2023-04-03T09:58:35;102448.84;;;0.57;65.25
78855;BME280;68206;59.956;30.234;2023-04-03T10:01:26;102449.88;;;0.61;65.00
78855;BME280;68206;59.956;30.234;2023-04-03T10:04:07;102444.16;;;0.71;65.07
78855;BME280;68206;59.956;30.234;2023-04-03T10:06:37;102439.81;;;0.71;64.28
78855;BME280;68206;59.956;30.234;2023-04-03T10:09:17;102444.94;;;0.68;64.36
78855;BME280;68206;59.956;30.234;2023-04-03T10:11:58;102458.75;;;0.66;63.17
78855;BME280;68206;59.956;30.234;2023-04-03T10:14:28;102454.91;;;0.56;63.57
78855;BME280;68206;59.956;30.234;2023-04-03T10:17:03;102457.75;;;0.62;63.59
78855;BME280;68206;59.956;30.234;2023-04-03T10:19:41;102453.59;;;0.67;63.47
78855;BME280;68206;59.956;30.234;2023-04-03T10:22:18;102465.63;;;0.64;61.92
78855;BME280;68206;59.956;30.234;2023-04-03T10:24:52;102459.66;;;0.66;62.63
78855;BME280;68206;59.956;30.234;2023-04-03T10:27:34;102448.38;;;0.67;63.70
78855;BME280;68206;59.956;30.234;2023-04-03T10:30:19;102461.44;;;0.67;63.40
78855;BME280;68206;59.956;30.234;2023-04-03T10:32:57;102443.19;;;0.69;63.89
78855;BME280;68206;59.956;30.234;2023-04-03T10:35:37;102452.16;;;0.75;64.31
78855;BME280;68206;59.956;30.234;2023-04-03T10:38:15;102457.66;;;0.83;63.25
78855;BME280;68206;59.956;30.234;2023-04-03T10:40:49;102448.19;;;0.85;63.25
78855;BME280;68206;59.956;30.234;2023-04-03T10:43:29;102437.75;;;0.85;63.42
78855;BME280;68206;59.956;30.234;2023-04-03T10:46:04;102439.56;;;0.88;62.60
78855;BME280;68206;59.956;30.234;2023-04-03T10:48:49;102430.72;;;0.84;63.16
78855;BME280;68206;59.956;30.234;2023-04-03T10:51:25;102422.38;;;0.94;63.46
78855;BME280;68206;59.956;30.234;2023-04-03T10:54:00;102440.28;;;1.07;62.22
78855;BME280;68206;59.956;30.234;2023-04-03T10:56:37;102435.97;;;1.08;61.82
78855;BME280;68206;59.956;30.234;2023-04-03T10:59:18;102450.75;;;1.07;62.00
78855;BME280;68206;59.956;30.234;2023-04-03T11:01:52;102439.19;;;1.01;62.78
78855;BME280;68206;59.956;30.234;2023-04-03T11:04:24;102435.66;;;0.99;62.71
78855;BME280;68206;59.956;30.234;2023-04-03T11:07:00;102428.56;;;0.96;63.20
78855;BME280;68206;59.956;30.234;2023-04-03T11:09:32;102439.25;;;1.02;63.53
78855;BME280;68206;59.956;30.234;2023-04-03T11:12:10;102439.38;;;1.05;63.06
78855;BME280;68206;59.956;30.234;2023-04-03T11:14:42;102464.31;;;0.97;63.47
78855;BME280;68206;59.956;30.234;2023-04-03T11:17:27;102440.75;;;0.96;63.28
78855;BME280;68206;59.956;30.234;2023-04-03T11:20:02;102444.25;;;0.96;63.64
78855;BME280;68206;59.956;30.234;2023-04-03T11:22:36;102452.91;;;0.95;63.74
78855;BME280;68206;59.956;30.234;2023-04-03T11:25:15;102448.19;;;0.85;64.13
78855;BME280;68206;59.956;30.234;2023-04-03T11:27:52;102468.25;;;0.86;65.05
78855;BME280;68206;59.956;30.234;2023-04-03T11:30:28;102452.34;;;0.80;64.96
78855;BME280;68206;59.956;30.234;2023-04-03T11:36:06;102445.03;;;0.71;65.58
78855;BME280;68206;59.956;30.234;2023-04-03T11:38:56;102441.44;;;0.68;65.85
78855;BME280;68206;59.956;30.234;2023-04-03T11:41:28;102444.28;;;0.74;66.14
78855;BME280;68206;59.956;30.234;2023-04-03T11:43:59;102446.09;;;0.76;65.17
78855;BME280;68206;59.956;30.234;2023-04-03T11:46:52;102449.84;;;0.83;65.55
78855;BME280;68206;59.956;30.234;2023-04-03T11:49:58;102464.69;;;0.84;65.58
78855;BME280;68206;59.956;30.234;2023-04-03T11:52:56;102454.97;;;0.80;65.77
78855;BME280;68206;59.956;30.234;2023-04-03T11:55:54;102448.63;;;0.73;65.06
78855;BME280;68206;59.956;30.234;2023-04-03T11:58:23;102449.28;;;0.68;65.89
78855;BME280;68206;59.956;30.234;2023-04-03T12:04:05;102442.03;;;0.61;65.00
78855;BME280;68206;59.956;30.234;2023-04-03T12:07:02;102441.91;;;0.58;66.17
78855;BME280;68206;59.956;30.234;2023-04-03T12:10:16;102443.81;;;0.62;66.25
78855;BME280;68206;59.956;30.234;2023-04-03T12:12:59;102447.25;;;0.61;66.28
78855;BME280;68206;59.956;30.234;2023-04-03T12:15:52;102446.38;;;0.60;66.27
78855;BME280;68206;59.956;30.234;2023-04-03T12:19:02;102446.28;;;0.59;66.13
78855;BME280;68206;59.956;30.234;2023-04-03T12:22:05;102443.81;;;0.62;66.32
78855;BME280;68206;59.956;30.234;2023-04-03T12:24:35;102442.97;;;0.63;66.57
78855;BME280;68206;59.956;30.234;2023-04-03T12:27:17;102438.84;;;0.68;65.43
78855;BME280;68206;59.956;30.234;2023-04-03T12:29:53;102436.16;;;0.66;66.01
78855;BME280;68206;59.956;30.234;2023-04-03T12:32:35;102442.28;;;0.67;66.47
78855;BME280;68206;59.956;30.234;2023-04-03T12:35:17;102435.25;;;0.66;66.41
78855;BME280;68206;59.956;30.234;2023-04-03T12:38:26;102440.56;;;0.67;65.86
78855;BME280;68206;59.956;30.234;2023-04-03T12:41:15;102430.13;;;0.69;66.25
78855;BME280;68206;59.956;30.234;2023-04-03T12:43:54;102446.59;;;0.66;65.79
78855;BME280;68206;59.956;30.234;2023-04-03T12:46:35;102443.91;;;0.65;66.23
78855;BME280;68206;59.956;30.234;2023-04-03T12:49:18;102442.94;;;0.61;66.05
78855;BME280;68206;59.956;30.234;2023-04-03T12:51:53;102443.75;;;0.60;66.47
78855;BME280;68206;59.956;30.234;2023-04-03T12:54:25;102459.53;;;0.63;65.71
78855;BME280;68206;59.956;30.234;2023-04-03T12:57:09;102436.91;;;0.64;66.01
78855;BME280;68206;59.956;30.234;2023-04-03T12:59:37;102449.94;;;0.62;66.10
78855;BME280;68206;59.956;30.234;2023-04-03T13:02:17;102442.03;;;0.61;66.09
78855;BME280;68206;59.956;30.234;2023-04-03T13:04:48;102451.66;;;0.62;65.82
78855;BME280;68206;59.956;30.234;2023-04-03T13:07:26;102445.47;;;0.60;64.99
78855;BME280;68206;59.956;30.234;2023-04-03T13:09:59;102444.59;;;0.59;65.61
78855;BME280;68206;59.956;30.234;2023-04-03T13:12:29;102451.59;;;0.60;65.56
78855;BME280;68206;59.956;30.234;2023-04-03T13:15:00;102469.06;;;0.63;65.45
78855;BME280;68206;59.956;30.234;2023-04-03T13:17:30;102452.56;;;0.64;65.03
78855;BME280;68206;59.956;30.234;2023-04-03T13:20:11;102454.19;;;0.60;65.35